createdAt,value
2023-06-26T00:00:11.747Z,96.58
2023-06-26T00:01:11.690Z,97.60
2023-06-26T00:02:11.743Z,97.61
2023-06-26T00:03:11.793Z,98.12
2023-06-26T00:04:11.712Z,99.27
2023-06-26T00:05:11.731Z,94.03
2023-06-26T00:06:11.742Z,97.57
2023-06-26T00:07:11.906Z,96.19
2023-06-26T00:08:11.910Z,98.13
2023-06-26T00:09:12.003Z,97.96
2023-06-26T00:10:12.035Z,96.75
2023-06-26T00:11:12.080Z,96.30
2023-06-26T00:12:12.033Z,95.58
2023-06-26T00:13:12.051Z,96.46
2023-06-26T00:14:12.061Z,97.02
2023-06-26T00:15:12.114Z,93.66
2023-06-26T00:16:12.127Z,96.10
2023-06-26T00:17:12.162Z,94.99
2023-06-26T00:18:12.134Z,94.92
2023-06-26T00:19:12.158Z,94.66
2023-06-26T00:20:12.160Z,94.39
2023-06-26T00:21:12.250Z,96.24
2023-06-26T00:22:12.365Z,95.12
2023-06-26T00:23:12.323Z,95.68
2023-06-26T00:24:12.337Z,96.59
2023-06-26T00:25:12.388Z,95.30
2023-06-26T00:26:12.399Z,95.64
2023-06-26T00:27:12.358Z,95.13
2023-06-26T00:28:12.454Z,95.37
2023-06-26T00:29:12.536Z,94.36
2023-06-26T00:30:12.673Z,95.70
2023-06-26T00:31:12.795Z,95.91
2023-06-26T00:32:12.880Z,95.78
2023-06-26T00:33:12.971Z,92.73
2023-06-26T00:34:13.059Z,95.84
2023-06-26T00:35:13.180Z,95.92
2023-06-26T00:36:13.153Z,95.95
2023-06-26T00:37:13.176Z,95.41
2023-06-26T00:38:13.188Z,96.50
2023-06-26T00:39:13.203Z,95.30
2023-06-26T00:40:13.203Z,93.84
2023-06-26T00:41:13.248Z,95.31
2023-06-26T00:42:13.230Z,95.09
2023-06-26T00:43:13.259Z,95.25
2023-06-26T00:44:13.301Z,93.62
2023-06-26T00:45:13.275Z,93.74
2023-06-26T00:46:13.273Z,94.96
2023-06-26T00:47:13.313Z,95.17
2023-06-26T00:48:13.492Z,95.43
2023-06-26T00:49:13.289Z,93.77
2023-06-26T00:50:13.375Z,95.19
2023-06-26T00:51:13.489Z,93.55
2023-06-26T00:52:13.496Z,93.89
2023-06-26T00:53:13.567Z,94.31
2023-06-26T00:54:13.556Z,93.86
2023-06-26T00:55:13.579Z,93.31
2023-06-26T00:56:13.559Z,93.57
2023-06-26T00:57:13.636Z,92.46
2023-06-26T00:58:13.729Z,93.56
2023-06-26T00:59:13.844Z,95.01
2023-06-26T01:00:13.852Z,95.37
2023-06-26T01:01:13.819Z,95.64
2023-06-26T01:02:13.911Z,94.51
2023-06-26T01:03:13.927Z,96.37
2023-06-26T01:04:13.877Z,92.84
2023-06-26T01:05:14.072Z,94.30
2023-06-26T01:06:14.103Z,94.08
2023-06-26T01:07:14.132Z,92.65
2023-06-26T01:08:14.102Z,93.48
2023-06-26T01:09:14.071Z,95.18
2023-06-26T01:10:14.079Z,94.87
2023-06-26T01:11:14.130Z,91.55
2023-06-26T01:12:14.225Z,92.81
2023-06-26T01:13:14.366Z,94.91
2023-06-26T01:14:14.421Z,94.66
2023-06-26T01:15:14.499Z,92.46
2023-06-26T01:16:14.486Z,92.78
2023-06-26T01:17:14.475Z,91.79
2023-06-26T01:18:14.495Z,91.66
2023-06-26T01:19:14.508Z,91.71
2023-06-26T01:20:14.616Z,91.46
2023-06-26T01:21:14.613Z,91.58
2023-06-26T01:22:14.635Z,93.42
2023-06-26T01:23:14.611Z,91.44
2023-06-26T01:24:14.629Z,91.51
2023-06-26T01:25:14.707Z,91.43
2023-06-26T01:26:14.666Z,94.88
2023-06-26T01:27:14.711Z,92.37
2023-06-26T01:28:14.719Z,94.32
2023-06-26T01:29:14.765Z,92.06
2023-06-26T01:30:14.733Z,92.38
2023-06-26T01:31:14.804Z,91.23
2023-06-26T01:32:14.782Z,90.34
2023-06-26T01:33:14.788Z,92.72
2023-06-26T01:34:14.790Z,93.26
2023-06-26T01:35:14.862Z,92.55
2023-06-26T01:36:14.908Z,94.50
2023-06-26T01:37:14.921Z,93.90
2023-06-26T01:38:15.119Z,92.90
2023-06-26T01:39:15.285Z,91.27
2023-06-26T01:40:15.233Z,91.72
2023-06-26T01:41:15.059Z,90.77
2023-06-26T01:42:15.066Z,94.82
2023-06-26T01:43:15.059Z,94.18
2023-06-26T01:44:15.033Z,93.75
2023-06-26T01:45:15.085Z,93.25
2023-06-26T01:46:16.199Z,93.14
2023-06-26T01:47:15.219Z,91.89
2023-06-26T01:48:15.212Z,90.17
2023-06-26T01:49:15.221Z,93.53
2023-06-26T01:50:15.217Z,90.87
2023-06-26T01:51:15.289Z,91.93
2023-06-26T01:52:15.461Z,92.15
2023-06-26T01:53:15.352Z,91.71
2023-06-26T01:54:15.341Z,92.09
2023-06-26T01:55:15.373Z,89.61
2023-06-26T01:56:15.369Z,92.24
2023-06-26T01:57:15.410Z,89.98
2023-06-26T01:58:15.454Z,92.72
2023-06-26T01:59:15.424Z,91.59
2023-06-26T02:00:15.461Z,92.35
2023-06-26T02:01:15.515Z,90.97
2023-06-26T02:02:15.515Z,94.26
2023-06-26T02:03:15.693Z,91.44
2023-06-26T02:04:15.532Z,90.85
2023-06-26T02:05:15.530Z,91.49
2023-06-26T02:06:15.537Z,92.87
2023-06-26T02:07:15.557Z,91.08
2023-06-26T02:08:15.557Z,90.74
2023-06-26T02:09:15.613Z,92.55
2023-06-26T02:10:15.593Z,91.80
2023-06-26T02:11:15.629Z,90.21
2023-06-26T02:12:15.691Z,91.97
2023-06-26T02:13:15.677Z,90.67
2023-06-26T02:14:15.718Z,90.81
2023-06-26T02:15:15.777Z,92.90
2023-06-26T02:16:15.712Z,93.19
2023-06-26T02:17:15.808Z,91.64
2023-06-26T02:18:15.771Z,92.13
2023-06-26T02:19:15.828Z,92.36
2023-06-26T02:20:15.842Z,95.01
2023-06-26T02:21:15.838Z,91.74
2023-06-26T02:22:15.882Z,91.69
2023-06-26T02:23:15.897Z,92.70
2023-06-26T02:24:15.896Z,91.51
2023-06-26T02:25:15.922Z,92.77
2023-06-26T02:26:15.904Z,90.43
2023-06-26T02:27:15.976Z,92.18
2023-06-26T02:28:15.985Z,92.08
2023-06-26T02:29:15.991Z,90.38
2023-06-26T02:30:16.019Z,91.69
2023-06-26T02:31:16.031Z,91.03
2023-06-26T02:32:16.025Z,93.11
2023-06-26T02:33:16.086Z,93.88
2023-06-26T02:34:16.073Z,92.02
2023-06-26T02:35:16.111Z,93.04
2023-06-26T02:36:16.138Z,92.77
2023-06-26T02:37:16.153Z,92.61
2023-06-26T02:38:16.202Z,92.95
2023-06-26T02:39:16.206Z,91.53
2023-06-26T02:40:16.254Z,91.88
2023-06-26T02:41:16.236Z,91.48
2023-06-26T02:42:16.265Z,90.56
2023-06-26T02:43:16.298Z,92.97
2023-06-26T02:44:16.307Z,92.89
2023-06-26T02:45:16.349Z,92.24
2023-06-26T02:46:16.387Z,92.80
2023-06-26T02:47:16.526Z,91.01
2023-06-26T02:48:16.435Z,90.72
2023-06-26T02:49:16.426Z,93.15
2023-06-26T02:50:16.492Z,91.30
2023-06-26T02:51:16.845Z,91.61
2023-06-26T02:52:16.915Z,89.74
2023-06-26T02:53:16.560Z,91.20
2023-06-26T02:54:16.591Z,91.55
2023-06-26T02:55:16.641Z,91.48
2023-06-26T02:56:16.655Z,88.98
2023-06-26T02:57:16.638Z,91.54
2023-06-26T02:58:16.703Z,90.69
2023-06-26T02:59:16.706Z,91.37
2023-06-26T03:00:16.725Z,90.22
2023-06-26T03:01:18.272Z,90.82
2023-06-26T03:02:16.763Z,91.19
2023-06-26T03:03:16.781Z,92.20
2023-06-26T03:04:16.869Z,91.45
2023-06-26T03:05:16.848Z,89.99
2023-06-26T03:06:16.857Z,90.05
2023-06-26T03:07:16.888Z,89.71
2023-06-26T03:08:16.918Z,91.29
2023-06-26T03:09:16.926Z,90.90
2023-06-26T03:10:17.005Z,91.50
2023-06-26T03:11:16.968Z,89.77
2023-06-26T03:12:17.002Z,90.30
2023-06-26T03:13:17.006Z,90.72
2023-06-26T03:14:17.065Z,89.29
2023-06-26T03:15:17.100Z,91.51
2023-06-26T03:16:17.160Z,88.18
2023-06-26T03:17:17.138Z,90.54
2023-06-26T03:18:17.153Z,92.01
2023-06-26T03:19:17.161Z,87.98
2023-06-26T03:20:17.200Z,89.65
2023-06-26T03:21:17.202Z,91.98
2023-06-26T03:22:17.235Z,91.13
2023-06-26T03:23:17.249Z,90.90
2023-06-26T03:24:17.299Z,90.23
2023-06-26T03:25:17.283Z,88.71
2023-06-26T03:26:17.327Z,90.87
2023-06-26T03:27:19.400Z,88.64
2023-06-26T03:28:17.376Z,90.09
2023-06-26T03:29:17.474Z,90.59
2023-06-26T03:30:17.444Z,86.77
2023-06-26T03:31:17.471Z,90.16
2023-06-26T03:32:17.487Z,89.93
2023-06-26T03:33:17.511Z,94.61
2023-06-26T03:34:17.529Z,91.36
2023-06-26T03:35:17.538Z,89.40
2023-06-26T03:36:17.546Z,91.13
2023-06-26T03:37:17.652Z,90.61
2023-06-26T03:38:17.629Z,87.55
2023-06-26T03:39:17.664Z,87.61
2023-06-26T03:40:17.710Z,89.86
2023-06-26T03:41:17.717Z,91.22
2023-06-26T03:42:17.750Z,91.01
2023-06-26T03:43:17.730Z,90.85
2023-06-26T03:44:17.774Z,89.72
2023-06-26T03:45:17.852Z,89.58
2023-06-26T03:46:17.885Z,85.77
2023-06-26T03:47:17.867Z,88.65
2023-06-26T03:48:17.890Z,89.86
2023-06-26T03:49:17.923Z,89.36
2023-06-26T03:50:17.917Z,88.73
2023-06-26T03:51:18.011Z,89.44
2023-06-26T03:52:17.999Z,89.02
2023-06-26T03:53:18.008Z,89.98
2023-06-26T03:54:18.028Z,89.51
2023-06-26T03:55:19.974Z,90.52
2023-06-26T03:56:18.071Z,90.13
2023-06-26T03:57:18.121Z,93.04
2023-06-26T03:58:18.141Z,89.51
2023-06-26T03:59:18.147Z,91.25
2023-06-26T04:00:18.201Z,90.18
2023-06-26T04:01:18.244Z,89.58
2023-06-26T04:02:18.316Z,88.77
2023-06-26T04:03:18.322Z,80.38
2023-06-26T04:04:18.443Z,77.16
2023-06-26T04:05:18.388Z,71.05
2023-06-26T04:06:18.458Z,62.51
2023-06-26T04:07:18.542Z,56.72
2023-06-26T04:08:18.630Z,46.90
2023-06-26T04:09:18.603Z,38.50
2023-06-26T04:10:18.697Z,31.65
2023-06-26T04:11:18.746Z,25.36
2023-06-26T04:12:18.800Z,26.64
2023-06-26T04:13:18.877Z,25.00
2023-06-26T04:14:18.927Z,25.00
2023-06-26T04:15:19.012Z,25.43
2023-06-26T04:16:19.042Z,24.75
2023-06-26T04:17:19.160Z,25.00
2023-06-26T04:18:19.146Z,26.28
2023-06-26T04:19:19.210Z,27.91
2023-06-26T04:20:19.257Z,24.64
2023-06-26T04:21:19.372Z,25.00
2023-06-26T04:22:19.402Z,27.07
2023-06-26T04:23:19.443Z,26.08
2023-06-26T04:24:19.486Z,25.00
2023-06-26T04:25:19.559Z,25.00
2023-06-26T04:26:19.628Z,25.00
2023-06-26T04:27:19.675Z,27.28
2023-06-26T04:28:19.752Z,25.37
2023-06-26T04:29:19.786Z,28.71
2023-06-26T04:30:19.864Z,27.42
2023-06-26T04:31:19.995Z,34.38
2023-06-26T04:32:19.965Z,39.37
2023-06-26T04:33:20.061Z,42.77
2023-06-26T04:34:20.065Z,43.71
2023-06-26T04:35:20.089Z,47.08
2023-06-26T04:36:20.143Z,45.58
2023-06-26T04:37:20.171Z,47.12
2023-06-26T04:38:20.199Z,47.50
2023-06-26T04:39:20.234Z,47.30
2023-06-26T04:40:20.269Z,48.10
2023-06-26T04:41:20.283Z,48.01
2023-06-26T04:42:20.332Z,48.78
2023-06-26T04:43:20.399Z,50.69
2023-06-26T04:44:20.432Z,52.71
2023-06-26T04:45:20.456Z,51.86
2023-06-26T04:46:20.752Z,52.43
2023-06-26T04:47:20.520Z,53.52
2023-06-26T04:48:20.571Z,52.22
2023-06-26T04:49:20.606Z,52.62
2023-06-26T04:50:20.621Z,58.33
2023-06-26T04:51:20.688Z,58.10
2023-06-26T04:52:20.710Z,56.73
2023-06-26T04:53:20.740Z,60.71
2023-06-26T04:54:20.779Z,59.89
2023-06-26T04:55:20.785Z,59.87
2023-06-26T04:56:20.837Z,61.47
2023-06-26T04:57:20.846Z,58.75
2023-06-26T04:58:20.961Z,59.42
2023-06-26T04:59:21.060Z,55.27
2023-06-26T05:00:20.997Z,54.68
2023-06-26T05:01:21.140Z,55.25
2023-06-26T05:02:21.211Z,51.16
2023-06-26T05:03:21.364Z,50.58
2023-06-26T05:04:21.235Z,48.44
2023-06-26T05:05:21.321Z,48.11
2023-06-26T05:06:21.300Z,40.54
2023-06-26T05:07:21.437Z,41.25
2023-06-26T05:08:21.542Z,36.91
2023-06-26T05:09:21.501Z,36.72
2023-06-26T05:10:21.557Z,29.39
2023-06-26T05:11:21.598Z,27.74
2023-06-26T05:12:21.726Z,25.00
2023-06-26T05:13:21.728Z,25.85
2023-06-26T05:14:23.615Z,26.27
2023-06-26T05:15:21.788Z,30.10
2023-06-26T05:16:21.763Z,25.00
2023-06-26T05:17:21.812Z,27.62
2023-06-26T05:18:21.768Z,25.00
2023-06-26T05:19:21.775Z,26.52
2023-06-26T05:20:21.836Z,25.98
2023-06-26T05:21:21.870Z,25.00
2023-06-26T05:22:21.759Z,25.73
2023-06-26T05:23:21.762Z,25.00
2023-06-26T05:24:22.703Z,26.09
2023-06-26T05:25:21.712Z,14.90
2023-06-26T05:26:21.756Z,13.61
2023-06-26T05:27:21.750Z,13.05
2023-06-26T05:28:21.685Z,1.85
2023-06-26T05:29:21.663Z,6.55
2023-06-26T05:30:21.651Z,25.76
2023-06-26T05:31:21.707Z,30.13
2023-06-26T05:32:21.702Z,30.66
2023-06-26T05:33:21.668Z,27.15
2023-06-26T05:34:21.651Z,25.00
2023-06-26T05:35:21.657Z,27.04
2023-06-26T05:36:21.666Z,25.00
2023-06-26T05:37:21.640Z,29.95
2023-06-26T05:38:21.645Z,33.46
2023-06-26T05:39:21.612Z,35.77
2023-06-26T05:40:21.622Z,27.83
2023-06-26T05:41:21.623Z,25.51
2023-06-26T05:42:21.617Z,25.00
2023-06-26T05:43:25.980Z,27.63
2023-06-26T05:44:22.590Z,27.70
2023-06-26T05:45:21.567Z,13.73
2023-06-26T05:46:21.569Z,10.15
2023-06-26T05:47:21.620Z,12.63
2023-06-26T05:48:21.590Z,6.93
2023-06-26T05:49:21.583Z,25.10
2023-06-26T05:50:21.541Z,26.06
2023-06-26T05:51:21.529Z,30.24
2023-06-26T05:52:21.561Z,34.24
2023-06-26T05:53:21.525Z,30.16
2023-06-26T05:54:21.525Z,32.93
2023-06-26T05:55:21.500Z,33.75
2023-06-26T05:56:21.498Z,39.80
2023-06-26T05:57:21.472Z,41.91
2023-06-26T05:58:21.488Z,43.78
2023-06-26T05:59:21.494Z,44.53
2023-06-26T06:00:21.502Z,48.87
2023-06-26T06:01:21.511Z,53.18
2023-06-26T06:02:21.490Z,49.91
2023-06-26T06:03:21.558Z,55.80
2023-06-26T06:04:21.445Z,54.07
2023-06-26T06:05:21.801Z,57.04
2023-06-26T06:06:21.471Z,60.60
2023-06-26T06:07:21.580Z,57.99
2023-06-26T06:08:21.640Z,59.76
2023-06-26T06:09:21.737Z,62.98
2023-06-26T06:10:21.726Z,58.31
2023-06-26T06:11:21.830Z,56.55
2023-06-26T06:12:21.909Z,54.98
2023-06-26T06:13:21.902Z,58.55
2023-06-26T06:14:21.958Z,55.86
2023-06-26T06:15:22.006Z,49.88
2023-06-26T06:16:22.037Z,48.39
2023-06-26T06:17:22.193Z,44.92
2023-06-26T06:18:22.176Z,45.88
2023-06-26T06:19:22.196Z,44.21
2023-06-26T06:20:22.266Z,48.03
2023-06-26T06:21:22.285Z,45.61
2023-06-26T06:22:22.359Z,48.14
2023-06-26T06:23:22.363Z,50.56
2023-06-26T06:24:22.414Z,49.98
2023-06-26T06:25:22.459Z,44.62
2023-06-26T06:26:22.496Z,46.93
2023-06-26T06:27:22.560Z,42.28
2023-06-26T06:28:22.611Z,41.63
2023-06-26T06:29:22.637Z,39.33
2023-06-26T06:30:43.616Z,40.68
2023-06-26T06:31:23.896Z,41.22
2023-06-26T06:32:22.679Z,42.76
2023-06-26T06:33:22.648Z,46.86
2023-06-26T06:34:22.690Z,52.90
2023-06-26T06:35:26.326Z,58.71
2023-06-26T06:36:22.640Z,41.63
2023-06-26T06:37:22.677Z,44.50
2023-06-26T06:38:22.613Z,48.00
2023-06-26T06:39:22.763Z,53.29
2023-06-26T06:40:22.650Z,62.31
2023-06-26T06:41:22.668Z,58.29
2023-06-26T06:42:22.661Z,55.84
2023-06-26T06:43:22.685Z,51.58
2023-06-26T06:44:22.583Z,45.52
2023-06-26T06:45:22.651Z,48.72
2023-06-26T06:46:22.611Z,44.09
2023-06-26T06:47:22.598Z,37.63
2023-06-26T06:48:22.580Z,41.15
2023-06-26T06:49:22.849Z,37.33
2023-06-26T06:50:22.693Z,30.49
2023-06-26T06:51:22.705Z,36.59
2023-06-26T06:52:22.700Z,25.33
2023-06-26T06:53:22.757Z,27.80
2023-06-26T06:54:22.819Z,26.84
2023-06-26T06:55:22.812Z,28.20
2023-06-26T06:56:22.882Z,28.18
2023-06-26T06:57:22.886Z,28.87
2023-06-26T06:58:22.951Z,30.45
2023-06-26T06:59:22.965Z,25.96
2023-06-26T07:00:22.994Z,25.00
2023-06-26T07:01:23.058Z,32.84
2023-06-26T07:02:23.055Z,32.95
2023-06-26T07:03:23.250Z,34.10
2023-06-26T07:04:23.100Z,30.21
2023-06-26T07:05:23.096Z,25.00
2023-06-26T07:06:23.116Z,27.13
2023-06-26T07:07:23.203Z,30.04
2023-06-26T07:08:23.150Z,33.59
2023-06-26T07:09:23.948Z,32.96
2023-06-26T07:10:23.384Z,28.83
2023-06-26T07:11:23.230Z,31.17
2023-06-26T07:12:23.257Z,25.00
2023-06-26T07:13:23.260Z,26.20
2023-06-26T07:14:23.259Z,25.27
2023-06-26T07:15:23.630Z,25.30
2023-06-26T07:16:23.310Z,25.00
2023-06-26T07:17:23.349Z,33.34
2023-06-26T07:18:23.294Z,36.12
2023-06-26T07:19:23.278Z,30.17
2023-06-26T07:20:23.300Z,25.00
2023-06-26T07:21:24.530Z,28.86
2023-06-26T07:22:23.273Z,25.41
2023-06-26T07:23:23.326Z,26.99
2023-06-26T07:24:23.297Z,25.00
2023-06-26T07:25:23.283Z,27.84
2023-06-26T07:26:35.603Z,25.50
2023-06-26T07:27:24.252Z,25.70
2023-06-26T07:28:23.258Z,26.06
2023-06-26T07:29:23.268Z,25.90
2023-06-26T07:30:23.280Z,21.91
2023-06-26T07:31:23.280Z,18.34
2023-06-26T07:32:23.256Z,46.33
2023-06-26T07:33:23.225Z,42.53
2023-06-26T07:34:23.224Z,49.04
2023-06-26T07:35:23.209Z,51.49
2023-06-26T07:36:23.245Z,50.82
2023-06-26T07:37:23.206Z,48.77
2023-06-26T07:38:23.177Z,56.46
2023-06-26T07:39:24.191Z,57.99
2023-06-26T07:40:23.177Z,58.68
2023-06-26T07:41:23.202Z,58.75
2023-06-26T07:42:23.188Z,56.91
2023-06-26T07:43:23.190Z,59.48
2023-06-26T07:44:23.160Z,86.17
2023-06-26T07:45:25.444Z,117.93
2023-06-26T07:46:23.160Z,136.93
2023-06-26T07:47:23.168Z,146.47
2023-06-26T07:48:23.135Z,148.55
2023-06-26T07:49:23.132Z,115.12
2023-06-26T07:50:23.139Z,99.93
2023-06-26T07:51:23.153Z,87.83
2023-06-26T07:52:23.116Z,63.42
2023-06-26T07:53:23.130Z,85.60
2023-06-26T07:54:23.135Z,68.75
2023-06-26T07:55:23.131Z,74.13
2023-06-26T07:56:23.074Z,39.15
2023-06-26T07:57:23.079Z,25.06
2023-06-26T07:58:23.106Z,31.07
2023-06-26T07:59:23.070Z,28.37
2023-06-26T08:00:23.086Z,45.03
2023-06-26T08:01:23.045Z,52.25
2023-06-26T08:02:23.097Z,63.44
2023-06-26T08:03:34.370Z,68.13
2023-06-26T08:04:24.225Z,68.59
2023-06-26T08:05:23.079Z,71.20
2023-06-26T08:06:23.012Z,72.34
2023-06-26T08:07:23.043Z,49.01
2023-06-26T08:08:22.993Z,51.78
2023-06-26T08:09:23.022Z,54.27
2023-06-26T08:10:23.013Z,52.07
2023-06-26T08:11:23.045Z,39.77
2023-06-26T08:12:23.040Z,47.07
2023-06-26T08:13:23.090Z,47.68
2023-06-26T08:14:23.116Z,43.29
2023-06-26T08:15:23.123Z,34.14
2023-06-26T08:16:23.112Z,33.12
2023-06-26T08:17:23.163Z,32.85
2023-06-26T08:18:23.157Z,29.87
2023-06-26T08:19:23.132Z,36.14
2023-06-26T08:20:23.140Z,49.58
2023-06-26T08:21:23.159Z,40.41
2023-06-26T08:22:23.212Z,30.59
2023-06-26T08:23:24.529Z,52.26
2023-06-26T08:24:23.157Z,58.02
2023-06-26T08:25:23.175Z,53.44
2023-06-26T08:26:23.140Z,30.74
2023-06-26T08:27:23.161Z,23.53
2023-06-26T08:28:23.146Z,41.11
2023-06-26T08:29:23.182Z,44.09
2023-06-26T08:30:23.168Z,27.47
2023-06-26T08:31:23.230Z,33.84
2023-06-26T08:32:23.170Z,24.76
2023-06-26T08:33:23.130Z,25.36
2023-06-26T08:34:23.152Z,39.91
2023-06-26T08:35:23.116Z,45.10
2023-06-26T08:36:23.096Z,58.04
2023-06-26T08:37:23.103Z,53.51
2023-06-26T08:38:23.079Z,52.83
2023-06-26T08:39:23.087Z,49.60
2023-06-26T08:40:23.080Z,48.77
2023-06-26T08:41:23.073Z,44.64
2023-06-26T08:42:23.061Z,46.52
2023-06-26T08:43:23.056Z,42.43
2023-06-26T08:44:23.069Z,26.96
2023-06-26T08:45:23.120Z,41.75
2023-06-26T08:46:23.066Z,30.08
2023-06-26T08:47:23.695Z,58.42
2023-06-26T08:48:23.029Z,81.78
2023-06-26T08:49:23.034Z,103.31
2023-06-26T08:50:23.012Z,108.55
2023-06-26T08:51:22.994Z,107.85
2023-06-26T08:52:23.007Z,94.45
2023-06-26T08:53:22.985Z,107.61
2023-06-26T08:54:22.982Z,112.21
2023-06-26T08:55:23.002Z,103.38
2023-06-26T08:56:22.951Z,106.93
2023-06-26T08:57:22.993Z,84.97
2023-06-26T08:58:22.935Z,66.77
2023-06-26T08:59:22.957Z,27.47
2023-06-26T09:00:22.935Z,43.85
2023-06-26T09:01:22.930Z,69.69
2023-06-26T09:02:23.029Z,89.91
2023-06-26T09:03:22.971Z,87.36
2023-06-26T09:04:22.945Z,70.82
2023-06-26T09:05:22.878Z,22.04
2023-06-26T09:06:22.917Z,35.57
2023-06-26T09:07:22.966Z,24.78
2023-06-26T09:08:22.938Z,18.34
2023-06-26T09:09:22.865Z,21.04
2023-06-26T09:10:22.852Z,21.53
2023-06-26T09:11:22.977Z,29.84
2023-06-26T09:12:22.854Z,34.39
2023-06-26T09:13:29.354Z,55.46
2023-06-26T09:14:23.884Z,56.99
2023-06-26T09:15:22.884Z,64.42
2023-06-26T09:16:22.857Z,78.79
2023-06-26T09:17:22.911Z,108.38
2023-06-26T09:18:22.894Z,147.04
2023-06-26T09:19:23.377Z,159.04
2023-06-26T09:20:22.823Z,176.70
2023-06-26T09:21:22.793Z,182.04
2023-06-26T09:22:22.772Z,175.69
2023-06-26T09:23:22.833Z,121.78
2023-06-26T09:24:22.766Z,147.09
2023-06-26T09:25:22.746Z,127.38
2023-06-26T09:26:22.785Z,132.68
2023-06-26T09:27:22.752Z,129.91
2023-06-26T09:28:22.759Z,89.12
2023-06-26T09:29:22.772Z,47.72
2023-06-26T09:30:22.857Z,67.93
2023-06-26T09:31:39.782Z,75.38
2023-06-26T09:32:23.913Z,47.31
2023-06-26T09:33:22.948Z,14.77
2023-06-26T09:34:22.857Z,30.09
2023-06-26T09:35:22.795Z,44.92
2023-06-26T09:36:22.813Z,64.41
2023-06-26T09:37:22.762Z,45.48
2023-06-26T09:38:22.766Z,26.81
2023-06-26T09:39:22.783Z,28.86
2023-06-26T09:40:22.806Z,25.36
2023-06-26T09:41:22.747Z,54.18
2023-06-26T09:42:22.725Z,81.89
2023-06-26T09:43:22.762Z,137.00
2023-06-26T09:44:22.754Z,147.44
2023-06-26T09:45:22.713Z,115.43
2023-06-26T09:46:22.769Z,82.10
2023-06-26T09:47:23.501Z,67.46
2023-06-26T09:48:22.710Z,89.81
2023-06-26T09:49:22.683Z,84.93
2023-06-26T09:50:22.705Z,96.89
2023-06-26T09:51:22.721Z,57.46
2023-06-26T09:52:22.668Z,50.50
2023-06-26T09:53:22.666Z,24.19
2023-06-26T09:54:22.681Z,38.96
2023-06-26T09:55:22.681Z,59.41
2023-06-26T09:56:22.669Z,60.76
2023-06-26T09:57:22.635Z,26.30
2023-06-26T09:58:22.677Z,27.44
2023-06-26T09:59:22.655Z,25.00
2023-06-26T10:00:22.675Z,31.50
2023-06-26T10:01:22.666Z,38.09
2023-06-26T10:02:22.713Z,39.81
2023-06-26T10:03:22.775Z,28.44
2023-06-26T10:04:22.756Z,43.56
2023-06-26T10:05:22.594Z,41.80
2023-06-26T10:06:22.699Z,99.38
2023-06-26T10:07:22.631Z,90.90
2023-06-26T10:08:22.576Z,73.73
2023-06-26T10:09:22.623Z,57.88
2023-06-26T10:10:22.566Z,35.63
2023-06-26T10:11:22.602Z,31.10
2023-06-26T10:12:22.597Z,24.52
2023-06-26T10:13:22.538Z,26.68
2023-06-26T10:14:22.543Z,25.13
2023-06-26T10:15:22.563Z,26.00
2023-06-26T10:16:22.689Z,25.39
2023-06-26T10:17:22.641Z,63.04
2023-06-26T10:18:22.511Z,95.34
2023-06-26T10:19:22.510Z,105.49
2023-06-26T10:20:22.488Z,107.70
2023-06-26T10:21:22.531Z,96.48
2023-06-26T10:22:22.685Z,113.33
2023-06-26T10:23:22.505Z,92.51
2023-06-26T10:24:22.482Z,146.84
2023-06-26T10:25:22.465Z,137.98
2023-06-26T10:26:22.493Z,150.00
2023-06-26T10:27:22.564Z,207.77
2023-06-26T10:28:22.496Z,167.13
2023-06-26T10:29:22.482Z,190.47
2023-06-26T10:30:22.470Z,140.69
2023-06-26T10:31:22.516Z,164.18
2023-06-26T10:32:22.472Z,229.04
2023-06-26T10:33:22.443Z,266.82
2023-06-26T10:34:22.416Z,261.61
2023-06-26T10:35:22.473Z,260.60
2023-06-26T10:36:22.511Z,255.44
2023-06-26T10:37:22.552Z,250.00
2023-06-26T10:38:22.601Z,248.82
2023-06-26T10:39:22.602Z,249.46
2023-06-26T10:40:22.669Z,250.00
2023-06-26T10:41:22.699Z,250.00
2023-06-26T10:42:22.739Z,248.40
2023-06-26T10:43:22.783Z,250.00
2023-06-26T10:44:22.806Z,250.00
2023-06-26T10:45:22.824Z,248.66
2023-06-26T10:46:22.827Z,249.14
2023-06-26T10:47:22.990Z,250.61
2023-06-26T10:48:22.928Z,247.60
2023-06-26T10:49:23.008Z,249.06
2023-06-26T10:50:37.812Z,250.06
2023-06-26T10:51:23.992Z,218.64
2023-06-26T10:52:23.031Z,196.26
2023-06-26T10:53:23.087Z,184.75
2023-06-26T10:54:23.018Z,176.93
2023-06-26T10:55:23.051Z,176.43
2023-06-26T10:56:23.991Z,171.85
2023-06-26T10:57:22.974Z,172.28
2023-06-26T10:58:22.982Z,169.14
2023-06-26T10:59:22.988Z,172.23
2023-06-26T11:00:22.964Z,170.32
2023-06-26T11:01:23.280Z,171.16
2023-06-26T11:02:22.955Z,172.01
2023-06-26T11:03:22.953Z,175.38
2023-06-26T11:04:23.016Z,176.62
2023-06-26T11:05:22.927Z,179.90
2023-06-26T11:06:22.944Z,179.81
2023-06-26T11:07:22.980Z,182.73
2023-06-26T11:08:22.960Z,183.81
2023-06-26T11:09:23.018Z,190.13
2023-06-26T11:10:23.041Z,188.55
2023-06-26T11:11:23.090Z,189.10
2023-06-26T11:12:23.092Z,187.88
2023-06-26T11:13:23.115Z,190.14
2023-06-26T11:14:23.169Z,189.81
2023-06-26T11:15:23.184Z,193.04
2023-06-26T11:16:23.224Z,192.63
2023-06-26T11:17:23.300Z,202.61
2023-06-26T11:18:23.291Z,210.33
2023-06-26T11:19:23.299Z,223.09
2023-06-26T11:20:23.333Z,228.64
2023-06-26T11:21:23.340Z,233.96
2023-06-26T11:22:23.370Z,231.75
2023-06-26T11:23:23.412Z,229.20
2023-06-26T11:24:23.397Z,227.20
2023-06-26T11:25:23.390Z,222.06
2023-06-26T11:26:23.454Z,216.79
2023-06-26T11:27:23.478Z,212.62
2023-06-26T11:28:23.473Z,209.63
2023-06-26T11:29:23.513Z,207.15
2023-06-26T11:30:23.534Z,203.51
2023-06-26T11:31:23.623Z,199.20
2023-06-26T11:32:23.569Z,191.38
2023-06-26T11:33:23.622Z,185.56
2023-06-26T11:34:23.654Z,182.21
2023-06-26T11:35:23.734Z,178.55
2023-06-26T11:36:23.670Z,175.18
2023-06-26T11:37:23.731Z,170.96
2023-06-26T11:38:23.795Z,168.57
2023-06-26T11:39:23.749Z,161.00
2023-06-26T11:40:23.793Z,157.90
2023-06-26T11:41:23.854Z,154.53
2023-06-26T11:42:23.864Z,148.10
2023-06-26T11:43:23.914Z,147.15
2023-06-26T11:44:23.987Z,139.83
2023-06-26T11:45:24.030Z,141.60
2023-06-26T11:46:24.019Z,136.62
2023-06-26T11:47:24.191Z,130.23
2023-06-26T11:48:24.181Z,128.38
2023-06-26T11:49:24.162Z,126.45
2023-06-26T11:50:24.228Z,122.74
2023-06-26T11:51:24.259Z,121.29
2023-06-26T11:52:24.285Z,119.16
2023-06-26T11:53:24.350Z,116.55
2023-06-26T11:54:24.369Z,114.10
2023-06-26T11:55:24.405Z,113.48
2023-06-26T11:56:24.505Z,111.01
2023-06-26T11:57:24.497Z,111.54
2023-06-26T11:58:24.538Z,107.97
2023-06-26T11:59:24.592Z,108.66
2023-06-26T12:00:24.630Z,105.31
2023-06-26T12:01:24.720Z,102.89
2023-06-26T12:02:24.747Z,103.59
2023-06-26T12:03:24.818Z,120.50
2023-06-26T12:04:24.906Z,140.41
2023-06-26T12:05:24.877Z,151.12
2023-06-26T12:06:24.948Z,163.63
2023-06-26T12:07:24.934Z,162.31
2023-06-26T12:08:24.960Z,159.89
2023-06-26T12:09:24.968Z,165.57
2023-06-26T12:10:24.925Z,176.13
2023-06-26T12:11:24.922Z,184.77
2023-06-26T12:12:24.949Z,191.25
2023-06-26T12:13:24.934Z,198.02
2023-06-26T12:14:25.008Z,201.14
2023-06-26T12:15:25.060Z,210.05
2023-06-26T12:16:25.043Z,215.78
2023-06-26T12:17:25.041Z,217.25
2023-06-26T12:18:25.032Z,219.60
2023-06-26T12:19:25.072Z,223.67
2023-06-26T12:20:25.058Z,227.66
2023-06-26T12:21:25.014Z,230.22
2023-06-26T12:22:25.005Z,237.88
2023-06-26T12:23:25.188Z,239.03
2023-06-26T12:24:25.081Z,241.79
2023-06-26T12:25:25.093Z,244.16
2023-06-26T12:26:25.087Z,247.74
2023-06-26T12:27:25.133Z,250.00
2023-06-26T12:28:25.153Z,247.47
2023-06-26T12:29:25.162Z,249.81
2023-06-26T12:30:25.192Z,249.82
2023-06-26T12:31:25.233Z,250.00
2023-06-26T12:32:25.310Z,250.00
2023-06-26T12:33:25.243Z,250.00
2023-06-26T12:34:25.246Z,249.49
2023-06-26T12:35:25.303Z,249.41
2023-06-26T12:36:25.285Z,247.30
2023-06-26T12:37:25.360Z,248.85
2023-06-26T12:38:25.337Z,246.91
2023-06-26T12:39:25.333Z,248.08
2023-06-26T12:40:25.521Z,246.24
2023-06-26T12:41:25.335Z,249.70
2023-06-26T12:42:25.371Z,248.56
2023-06-26T12:43:25.381Z,250.02
2023-06-26T12:44:25.386Z,249.31
2023-06-26T12:45:32.493Z,250.25
2023-06-26T12:46:26.392Z,250.30
2023-06-26T12:47:25.428Z,250.44